sensor_id;sensor_type;location;lat;lon;timestamp;P1;durP1;ratioP1;P2;durP2;ratioP2
14681;SDS011;7429;52.498;13.480;2024-02-26T00:03:00;18.43;;;14.57;;
14681;SDS011;7429;52.498;13.480;2024-02-26T00:06:05;18.80;;;14.33;;
14681;SDS011;7429;52.498;13.480;2024-02-26T00:09:10;18.57;;;14.93;;
14681;SDS011;7429;52.498;13.480;2024-02-26T00:12:14;18.97;;;14.77;;
14681;SDS011;7429;52.498;13.480;2024-02-26T00:15:18;18.00;;;14.57;;
14681;SDS011;7429;52.498;13.480;2024-02-26T00:18:22;19.27;;;14.90;;
14681;SDS011;7429;52.498;13.480;2024-02-26T00:21:25;21.03;;;15.53;;
14681;SDS011;7429;52.498;13.480;2024-02-26T00:24:30;19.83;;;15.47;;
14681;SDS011;7429;52.498;13.480;2024-02-26T00:27:34;17.30;;;13.80;;
14681;SDS011;7429;52.498;13.480;2024-02-26T00:30:38;18.47;;;13.77;;
14681;SDS011;7429;52.498;13.480;2024-02-26T00:33:41;17.73;;;13.03;;
14681;SDS011;7429;52.498;13.480;2024-02-26T00:36:45;17.33;;;14.97;;
14681;SDS011;7429;52.498;13.480;2024-02-26T00:39:49;17.53;;;13.57;;
14681;SDS011;7429;52.498;13.480;2024-02-26T00:42:55;19.30;;;14.07;;
14681;SDS011;7429;52.498;13.480;2024-02-26T00:45:58;16.03;;;13.57;;
14681;SDS011;7429;52.498;13.480;2024-02-26T00:49:02;16.37;;;14.37;;
14681;SDS011;7429;52.498;13.480;2024-02-26T00:52:06;16.37;;;14.43;;
14681;SDS011;7429;52.498;13.480;2024-02-26T00:55:11;20.70;;;14.37;;
14681;SDS011;7429;52.498;13.480;2024-02-26T00:58:14;16.43;;;13.63;;
14681;SDS011;7429;52.498;13.480;2024-02-26T01:01:18;15.37;;;13.10;;
14681;SDS011;7429;52.498;13.480;2024-02-26T01:04:21;15.50;;;11.50;;
14681;SDS011;7429;52.498;13.480;2024-02-26T01:07:30;17.50;;;11.90;;
14681;SDS011;7429;52.498;13.480;2024-02-26T01:10:38;14.30;;;11.30;;
14681;SDS011;7429;52.498;13.480;2024-02-26T01:13:42;13.60;;;11.53;;
14681;SDS011;7429;52.498;13.480;2024-02-26T01:16:45;11.97;;;10.30;;
14681;SDS011;7429;52.498;13.480;2024-02-26T01:19:48;13.73;;;10.67;;
14681;SDS011;7429;52.498;13.480;2024-02-26T01:22:52;16.80;;;11.20;;
14681;SDS011;7429;52.498;13.480;2024-02-26T01:25:57;12.37;;;11.07;;
14681;SDS011;7429;52.498;13.480;2024-02-26T01:29:00;12.67;;;10.73;;
14681;SDS011;7429;52.498;13.480;2024-02-26T01:32:03;11.47;;;10.30;;
14681;SDS011;7429;52.498;13.480;2024-02-26T01:35:08;11.03;;;9.87;;
14681;SDS011;7429;52.498;13.480;2024-02-26T01:38:14;14.53;;;11.53;;
14681;SDS011;7429;52.498;13.480;2024-02-26T01:41:19;11.27;;;10.10;;
14681;SDS011;7429;52.498;13.480;2024-02-26T01:44:23;11.57;;;10.37;;
14681;SDS011;7429;52.498;13.480;2024-02-26T01:47:26;12.43;;;10.60;;
14681;SDS011;7429;52.498;13.480;2024-02-26T01:50:30;12.90;;;10.17;;
14681;SDS011;7429;52.498;13.480;2024-02-26T01:53:36;12.87;;;10.17;;
14681;SDS011;7429;52.498;13.480;2024-02-26T01:56:41;12.17;;;10.37;;
14681;SDS011;7429;52.498;13.480;2024-02-26T01:59:45;10.17;;;9.10;;
14681;SDS011;7429;52.498;13.480;2024-02-26T02:02:48;12.53;;;10.17;;
14681;SDS011;7429;52.498;13.480;2024-02-26T02:05:54;12.80;;;9.67;;
14681;SDS011;7429;52.498;13.480;2024-02-26T02:08:57;15.43;;;10.23;;
14681;SDS011;7429;52.498;13.480;2024-02-26T02:12:03;14.70;;;10.33;;
14681;SDS011;7429;52.498;13.480;2024-02-26T02:15:08;11.80;;;10.37;;
14681;SDS011;7429;52.498;13.480;2024-02-26T02:18:12;10.90;;;9.47;;
14681;SDS011;7429;52.498;13.480;2024-02-26T02:21:16;12.63;;;10.17;;
14681;SDS011;7429;52.498;13.480;2024-02-26T02:24:20;12.07;;;9.33;;
14681;SDS011;7429;52.498;13.480;2024-02-26T02:27:23;12.23;;;10.37;;
14681;SDS011;7429;52.498;13.480;2024-02-26T02:30:27;10.63;;;8.50;;
14681;SDS011;7429;52.498;13.480;2024-02-26T02:33:32;11.40;;;7.50;;
14681;SDS011;7429;52.498;13.480;2024-02-26T02:36:49;8.83;;;7.50;;
14681;SDS011;7429;52.498;13.480;2024-02-26T02:39:55;9.77;;;7.90;;
14681;SDS011;7429;52.498;13.480;2024-02-26T02:42:59;9.50;;;7.47;;
14681;SDS011;7429;52.498;13.480;2024-02-26T02:46:03;9.53;;;7.83;;
14681;SDS011;7429;52.498;13.480;2024-02-26T02:49:07;8.60;;;7.70;;
14681;SDS011;7429;52.498;13.480;2024-02-26T02:52:13;12.80;;;8.20;;
14681;SDS011;7429;52.498;13.480;2024-02-26T02:55:17;8.50;;;7.70;;
14681;SDS011;7429;52.498;13.480;2024-02-26T02:58:20;8.30;;;7.47;;
14681;SDS011;7429;52.498;13.480;2024-02-26T03:01:24;9.47;;;7.47;;
14681;SDS011;7429;52.498;13.480;2024-02-26T03:04:27;9.30;;;7.50;;
14681;SDS011;7429;52.498;13.480;2024-02-26T03:07:32;8.53;;;7.27;;
14681;SDS011;7429;52.498;13.480;2024-02-26T03:10:35;8.67;;;7.87;;
14681;SDS011;7429;52.498;13.480;2024-02-26T03:13:38;8.47;;;7.57;;
14681;SDS011;7429;52.498;13.480;2024-02-26T03:16:42;8.67;;;7.87;;
14681;SDS011;7429;52.498;13.480;2024-02-26T03:19:45;10.27;;;7.73;;
14681;SDS011;7429;52.498;13.480;2024-02-26T03:22:50;8.93;;;7.90;;
14681;SDS011;7429;52.498;13.480;2024-02-26T03:25:53;8.47;;;7.60;;
14681;SDS011;7429;52.498;13.480;2024-02-26T03:28:57;8.57;;;7.77;;
14681;SDS011;7429;52.498;13.480;2024-02-26T03:32:00;9.13;;;7.97;;
14681;SDS011;7429;52.498;13.480;2024-02-26T03:35:04;8.97;;;8.10;;
14681;SDS011;7429;52.498;13.480;2024-02-26T03:38:10;9.17;;;8.27;;
14681;SDS011;7429;52.498;13.480;2024-02-26T03:41:13;8.63;;;7.73;;
14681;SDS011;7429;52.498;13.480;2024-02-26T03:44:17;10.03;;;8.77;;
14681;SDS011;7429;52.498;13.480;2024-02-26T03:47:20;10.37;;;7.93;;
14681;SDS011;7429;52.498;13.480;2024-02-26T03:50:23;9.33;;;8.20;;
14681;SDS011;7429;52.498;13.480;2024-02-26T03:53:29;8.37;;;7.67;;
14681;SDS011;7429;52.498;13.480;2024-02-26T03:56:33;9.50;;;8.50;;
14681;SDS011;7429;52.498;13.480;2024-02-26T03:59:36;9.73;;;8.67;;
14681;SDS011;7429;52.498;13.480;2024-02-26T04:02:41;12.67;;;8.30;;
14681;SDS011;7429;52.498;13.480;2024-02-26T04:05:44;9.60;;;8.57;;
14681;SDS011;7429;52.498;13.480;2024-02-26T04:08:51;10.70;;;8.90;;
14681;SDS011;7429;52.498;13.480;2024-02-26T04:11:54;11.37;;;8.87;;
14681;SDS011;7429;52.498;13.480;2024-02-26T04:14:57;9.13;;;8.10;;
14681;SDS011;7429;52.498;13.480;2024-02-26T04:18:00;10.43;;;8.77;;
14681;SDS011;7429;52.498;13.480;2024-02-26T04:21:05;12.10;;;8.97;;
14681;SDS011;7429;52.498;13.480;2024-02-26T04:24:10;12.03;;;9.63;;
14681;SDS011;7429;52.498;13.480;2024-02-26T04:27:14;11.17;;;9.40;;
14681;SDS011;7429;52.498;13.480;2024-02-26T04:30:17;9.53;;;8.53;;
14681;SDS011;7429;52.498;13.480;2024-02-26T04:33:21;12.50;;;9.87;;
14681;SDS011;7429;52.498;13.480;2024-02-26T04:36:24;11.17;;;9.57;;
14681;SDS011;7429;52.498;13.480;2024-02-26T04:39:29;11.50;;;9.67;;
14681;SDS011;7429;52.498;13.480;2024-02-26T04:42:32;14.03;;;9.67;;
14681;SDS011;7429;52.498;13.480;2024-02-26T04:45:35;10.57;;;9.30;;
14681;SDS011;7429;52.498;13.480;2024-02-26T04:48:39;12.07;;;10.53;;
14681;SDS011;7429;52.498;13.480;2024-02-26T04:51:45;14.07;;;9.80;;
14681;SDS011;7429;52.498;13.480;2024-02-26T04:54:51;14.53;;;9.93;;
14681;SDS011;7429;52.498;13.480;2024-02-26T04:57:54;15.40;;;10.30;;
14681;SDS011;7429;52.498;13.480;2024-02-26T05:00:57;17.00;;;12.13;;
14681;SDS011;7429;52.498;13.480;2024-02-26T05:04:00;13.23;;;10.60;;
14681;SDS011;7429;52.498;13.480;2024-02-26T05:07:04;12.77;;;11.40;;
14681;SDS011;7429;52.498;13.480;2024-02-26T05:10:09;14.23;;;11.50;;
14681;SDS011;7429;52.498;13.480;2024-02-26T05:13:13;14.37;;;11.70;;
14681;SDS011;7429;52.498;13.480;2024-02-26T05:16:17;16.07;;;13.10;;
14681;SDS011;7429;52.498;13.480;2024-02-26T05:19:22;16.37;;;12.30;;
14681;SDS011;7429;52.498;13.480;2024-02-26T05:22:25;13.47;;;11.43;;
14681;SDS011;7429;52.498;13.480;2024-02-26T05:25:31;13.80;;;12.07;;
14681;SDS011;7429;52.498;13.480;2024-02-26T05:28:34;16.97;;;12.10;;
14681;SDS011;7429;52.498;13.480;2024-02-26T05:31:39;14.43;;;11.63;;
14681;SDS011;7429;52.498;13.480;2024-02-26T05:34:44;15.87;;;11.67;;
14681;SDS011;7429;52.498;13.480;2024-02-26T05:37:47;16.47;;;11.70;;
14681;SDS011;7429;52.498;13.480;2024-02-26T05:40:52;16.73;;;12.60;;
14681;SDS011;7429;52.498;13.480;2024-02-26T05:43:56;14.63;;;11.37;;
14681;SDS011;7429;52.498;13.480;2024-02-26T05:46:59;20.53;;;11.77;;
14681;SDS011;7429;52.498;13.480;2024-02-26T05:50:05;22.47;;;12.43;;
14681;SDS011;7429;52.498;13.480;2024-02-26T05:53:11;16.30;;;11.33;;
14681;SDS011;7429;52.498;13.480;2024-02-26T05:56:16;17.40;;;13.03;;
14681;SDS011;7429;52.498;13.480;2024-02-26T05:59:19;18.20;;;12.27;;
14681;SDS011;7429;52.498;13.480;2024-02-26T06:02:23;16.83;;;11.97;;
14681;SDS011;7429;52.498;13.480;2024-02-26T06:05:26;15.83;;;11.83;;
14681;SDS011;7429;52.498;13.480;2024-02-26T06:08:29;21.53;;;13.83;;
14681;SDS011;7429;52.498;13.480;2024-02-26T06:11:34;15.63;;;12.93;;
14681;SDS011;7429;52.498;13.480;2024-02-26T06:14:37;17.80;;;13.33;;
14681;SDS011;7429;52.498;13.480;2024-02-26T06:17:40;18.83;;;13.27;;
14681;SDS011;7429;52.498;13.480;2024-02-26T06:20:44;15.77;;;11.53;;
14681;SDS011;7429;52.498;13.480;2024-02-26T06:23:48;20.57;;;12.80;;
14681;SDS011;7429;52.498;13.480;2024-02-26T06:26:53;17.80;;;12.20;;
14681;SDS011;7429;52.498;13.480;2024-02-26T06:29:56;17.40;;;14.37;;
14681;SDS011;7429;52.498;13.480;2024-02-26T06:33:00;25.13;;;15.50;;
14681;SDS011;7429;52.498;13.480;2024-02-26T06:36:05;21.60;;;13.73;;
14681;SDS011;7429;52.498;13.480;2024-02-26T06:39:09;19.10;;;14.17;;
14681;SDS011;7429;52.498;13.480;2024-02-26T06:42:15;25.83;;;16.10;;
14681;SDS011;7429;52.498;13.480;2024-02-26T06:45:19;25.07;;;15.93;;
14681;SDS011;7429;52.498;13.480;2024-02-26T06:48:23;22.77;;;15.93;;
14681;SDS011;7429;52.498;13.480;2024-02-26T06:51:27;29.17;;;17.37;;
14681;SDS011;7429;52.498;13.480;2024-02-26T06:54:31;26.67;;;17.33;;
14681;SDS011;7429;52.498;13.480;2024-02-26T06:57:36;20.67;;;15.17;;
14681;SDS011;7429;52.498;13.480;2024-02-26T07:00:40;24.23;;;16.60;;
14681;SDS011;7429;52.498;13.480;2024-02-26T07:03:46;24.03;;;16.17;;
14681;SDS011;7429;52.498;13.480;2024-02-26T07:06:50;26.97;;;17.13;;
14681;SDS011;7429;52.498;13.480;2024-02-26T07:09:54;24.77;;;17.73;;
14681;SDS011;7429;52.498;13.480;2024-02-26T07:12:59;23.73;;;17.17;;
14681;SDS011;7429;52.498;13.480;2024-02-26T07:16:03;23.83;;;16.83;;
14681;SDS011;7429;52.498;13.480;2024-02-26T07:19:07;25.50;;;17.83;;
14681;SDS011;7429;52.498;13.480;2024-02-26T07:22:12;27.07;;;17.03;;
14681;SDS011;7429;52.498;13.480;2024-02-26T07:25:16;26.10;;;17.67;;
14681;SDS011;7429;52.498;13.480;2024-02-26T07:28:21;21.93;;;17.17;;
14681;SDS011;7429;52.498;13.480;2024-02-26T07:31:25;23.77;;;16.83;;
14681;SDS011;7429;52.498;13.480;2024-02-26T07:34:28;25.20;;;17.07;;
14681;SDS011;7429;52.498;13.480;2024-02-26T07:37:32;27.23;;;17.77;;
14681;SDS011;7429;52.498;13.480;2024-02-26T07:40:36;23.13;;;18.23;;
14681;SDS011;7429;52.498;13.480;2024-02-26T07:43:53;26.80;;;18.80;;
14681;SDS011;7429;52.498;13.480;2024-02-26T07:46:56;23.90;;;17.10;;
14681;SDS011;7429;52.498;13.480;2024-02-26T07:50:00;21.93;;;17.00;;
14681;SDS011;7429;52.498;13.480;2024-02-26T07:53:04;25.40;;;18.47;;
14681;SDS011;7429;52.498;13.480;2024-02-26T07:56:08;25.73;;;17.23;;
14681;SDS011;7429;52.498;13.480;2024-02-26T07:59:13;26.00;;;18.57;;
14681;SDS011;7429;52.498;13.480;2024-02-26T08:02:16;25.07;;;18.37;;
14681;SDS011;7429;52.498;13.480;2024-02-26T08:05:20;27.10;;;19.07;;
14681;SDS011;7429;52.498;13.480;2024-02-26T08:08:23;26.60;;;17.77;;
14681;SDS011;7429;52.498;13.480;2024-02-26T08:11:27;27.23;;;18.43;;
14681;SDS011;7429;52.498;13.480;2024-02-26T08:14:32;24.97;;;18.20;;
14681;SDS011;7429;52.498;13.480;2024-02-26T08:17:35;28.70;;;19.23;;
14681;SDS011;7429;52.498;13.480;2024-02-26T08:20:38;26.00;;;17.97;;
14681;SDS011;7429;52.498;13.480;2024-02-26T08:23:42;29.57;;;18.93;;
14681;SDS011;7429;52.498;13.480;2024-02-26T08:26:46;28.07;;;19.47;;
14681;SDS011;7429;52.498;13.480;2024-02-26T08:29:51;27.13;;;20.10;;
14681;SDS011;7429;52.498;13.480;2024-02-26T08:32:54;29.33;;;19.43;;
14681;SDS011;7429;52.498;13.480;2024-02-26T08:35:57;27.60;;;20.07;;
14681;SDS011;7429;52.498;13.480;2024-02-26T08:39:01;30.70;;;19.90;;
14681;SDS011;7429;52.498;13.480;2024-02-26T08:42:05;24.27;;;18.20;;
14681;SDS011;7429;52.498;13.480;2024-02-26T08:45:10;25.73;;;18.47;;
14681;SDS011;7429;52.498;13.480;2024-02-26T08:48:14;25.20;;;17.93;;
14681;SDS011;7429;52.498;13.480;2024-02-26T08:51:18;26.40;;;18.83;;
14681;SDS011;7429;52.498;13.480;2024-02-26T08:54:21;25.00;;;18.47;;
14681;SDS011;7429;52.498;13.480;2024-02-26T08:57:25;28.63;;;18.60;;
14681;SDS011;7429;52.498;13.480;2024-02-26T09:00:31;26.00;;;18.57;;
14681;SDS011;7429;52.498;13.480;2024-02-26T09:03:34;27.33;;;18.23;;
14681;SDS011;7429;52.498;13.480;2024-02-26T09:06:38;26.77;;;18.97;;
14681;SDS011;7429;52.498;13.480;2024-02-26T09:09:41;25.47;;;18.50;;
14681;SDS011;7429;52.498;13.480;2024-02-26T09:12:45;24.80;;;18.97;;
14681;SDS011;7429;52.498;13.480;2024-02-26T09:15:52;24.27;;;18.23;;
14681;SDS011;7429;52.498;13.480;2024-02-26T09:18:57;25.13;;;17.93;;
14681;SDS011;7429;52.498;13.480;2024-02-26T09:22:00;24.03;;;17.90;;
14681;SDS011;7429;52.498;13.480;2024-02-26T09:25:04;25.60;;;16.93;;
14681;SDS011;7429;52.498;13.480;2024-02-26T09:28:09;21.70;;;16.33;;
14681;SDS011;7429;52.498;13.480;2024-02-26T09:31:14;25.97;;;16.30;;
14681;SDS011;7429;52.498;13.480;2024-02-26T09:34:18;24.67;;;16.60;;
14681;SDS011;7429;52.498;13.480;2024-02-26T09:37:21;23.90;;;16.33;;
14681;SDS011;7429;52.498;13.480;2024-02-26T09:40:24;22.30;;;15.70;;
14681;SDS011;7429;52.498;13.480;2024-02-26T09:43:32;21.33;;;15.80;;
14681;SDS011;7429;52.498;13.480;2024-02-26T09:46:40;23.70;;;16.97;;
14681;SDS011;7429;52.498;13.480;2024-02-26T09:49:44;24.03;;;16.90;;
14681;SDS011;7429;52.498;13.480;2024-02-26T09:52:51;23.13;;;15.23;;
14681;SDS011;7429;52.498;13.480;2024-02-26T09:55:56;18.47;;;15.37;;
14681;SDS011;7429;52.498;13.480;2024-02-26T09:59:00;20.33;;;15.30;;
14681;SDS011;7429;52.498;13.480;2024-02-26T10:02:12;26.90;;;15.03;;
14681;SDS011;7429;52.498;13.480;2024-02-26T10:05:19;20.53;;;14.87;;
14681;SDS011;7429;52.498;13.480;2024-02-26T10:08:22;20.20;;;14.40;;
14681;SDS011;7429;52.498;13.480;2024-02-26T10:11:27;19.00;;;14.37;;
14681;SDS011;7429;52.498;13.480;2024-02-26T10:14:33;18.73;;;12.67;;
14681;SDS011;7429;52.498;13.480;2024-02-26T10:17:39;18.50;;;13.23;;
14681;SDS011;7429;52.498;13.480;2024-02-26T10:20:45;16.67;;;13.33;;
14681;SDS011;7429;52.498;13.480;2024-02-26T10:24:02;15.63;;;11.77;;
14681;SDS011;7429;52.498;13.480;2024-02-26T10:27:06;14.50;;;11.30;;
14681;SDS011;7429;52.498;13.480;2024-02-26T10:30:18;19.43;;;11.13;;
14681;SDS011;7429;52.498;13.480;2024-02-26T10:33:24;16.60;;;12.17;;
14681;SDS011;7429;52.498;13.480;2024-02-26T10:36:35;18.67;;;12.33;;
14681;SDS011;7429;52.498;13.480;2024-02-26T10:39:52;15.77;;;12.40;;
14681;SDS011;7429;52.498;13.480;2024-02-26T10:42:56;17.03;;;12.27;;
14681;SDS011;7429;52.498;13.480;2024-02-26T10:46:01;16.10;;;11.30;;
14681;SDS011;7429;52.498;13.480;2024-02-26T10:49:12;16.57;;;12.40;;
14681;SDS011;7429;52.498;13.480;2024-02-26T10:52:20;15.80;;;12.10;;
14681;SDS011;7429;52.498;13.480;2024-02-26T10:55:26;14.63;;;11.57;;
14681;SDS011;7429;52.498;13.480;2024-02-26T10:58:31;13.90;;;11.27;;
14681;SDS011;7429;52.498;13.480;2024-02-26T11:01:34;14.07;;;11.37;;
14681;SDS011;7429;52.498;13.480;2024-02-26T11:04:41;15.47;;;11.83;;
14681;SDS011;7429;52.498;13.480;2024-02-26T11:07:45;16.10;;;12.00;;
14681;SDS011;7429;52.498;13.480;2024-02-26T11:10:50;13.83;;;11.20;;
14681;SDS011;7429;52.498;13.480;2024-02-26T11:13:56;13.17;;;10.20;;
14681;SDS011;7429;52.498;13.480;2024-02-26T11:17:00;13.30;;;10.60;;
14681;SDS011;7429;52.498;13.480;2024-02-26T11:20:05;13.53;;;10.53;;
14681;SDS011;7429;52.498;13.480;2024-02-26T11:23:18;14.83;;;10.60;;
14681;SDS011;7429;52.498;13.480;2024-02-26T11:26:21;11.97;;;10.13;;
14681;SDS011;7429;52.498;13.480;2024-02-26T11:29:28;14.93;;;10.40;;
14681;SDS011;7429;52.498;13.480;2024-02-26T11:32:38;12.47;;;11.03;;
14681;SDS011;7429;52.498;13.480;2024-02-26T11:35:43;13.97;;;10.57;;
14681;SDS011;7429;52.498;13.480;2024-02-26T11:38:48;12.40;;;9.90;;
14681;SDS011;7429;52.498;13.480;2024-02-26T11:41:54;18.30;;;10.50;;
14681;SDS011;7429;52.498;13.480;2024-02-26T11:44:57;11.07;;;9.90;;
14681;SDS011;7429;52.498;13.480;2024-02-26T11:48:02;14.20;;;11.97;;
14681;SDS011;7429;52.498;13.480;2024-02-26T11:51:08;12.77;;;10.03;;
14681;SDS011;7429;52.498;13.480;2024-02-26T11:54:16;14.27;;;10.33;;
14681;SDS011;7429;52.498;13.480;2024-02-26T11:57:41;12.97;;;10.27;;
14681;SDS011;7429;52.498;13.480;2024-02-26T12:00:44;10.17;;;9.17;;
14681;SDS011;7429;52.498;13.480;2024-02-26T12:03:47;12.77;;;10.33;;
14681;SDS011;7429;52.498;13.480;2024-02-26T12:06:53;13.00;;;11.30;;
14681;SDS011;7429;52.498;13.480;2024-02-26T12:13:30;15.17;;;10.73;;
14681;SDS011;7429;52.498;13.480;2024-02-26T12:16:34;14.20;;;11.23;;
14681;SDS011;7429;52.498;13.480;2024-02-26T12:19:39;13.93;;;10.77;;
14681;SDS011;7429;52.498;13.480;2024-02-26T12:22:46;14.13;;;9.00;;
14681;SDS011;7429;52.498;13.480;2024-02-26T12:26:12;10.13;;;8.83;;
14681;SDS011;7429;52.498;13.480;2024-02-26T12:29:18;13.20;;;8.90;;
14681;SDS011;7429;52.498;13.480;2024-02-26T12:32:21;11.23;;;8.63;;
14681;SDS011;7429;52.498;13.480;2024-02-26T12:35:26;8.43;;;7.60;;
14681;SDS011;7429;52.498;13.480;2024-02-26T12:38:34;14.20;;;8.47;;
14681;SDS011;7429;52.498;13.480;2024-02-26T12:41:38;10.20;;;9.20;;
14681;SDS011;7429;52.498;13.480;2024-02-26T12:44:42;12.17;;;9.20;;
14681;SDS011;7429;52.498;13.480;2024-02-26T12:47:47;8.97;;;7.83;;
14681;SDS011;7429;52.498;13.480;2024-02-26T12:50:51;6.03;;;5.20;;
14681;SDS011;7429;52.498;13.480;2024-02-26T12:53:56;7.13;;;5.43;;
14681;SDS011;7429;52.498;13.480;2024-02-26T12:57:00;9.63;;;6.60;;
14681;SDS011;7429;52.498;13.480;2024-02-26T13:00:05;6.17;;;5.57;;
14681;SDS011;7429;52.498;13.480;2024-02-26T13:03:12;6.73;;;5.67;;
14681;SDS011;7429;52.498;13.480;2024-02-26T13:06:16;6.40;;;5.80;;
14681;SDS011;7429;52.498;13.480;2024-02-26T13:09:21;9.73;;;6.40;;
14681;SDS011;7429;52.498;13.480;2024-02-26T13:12:25;16.33;;;9.43;;
14681;SDS011;7429;52.498;13.480;2024-02-26T13:15:29;12.27;;;9.83;;
14681;SDS011;7429;52.498;13.480;2024-02-26T13:18:32;17.53;;;11.70;;
14681;SDS011;7429;52.498;13.480;2024-02-26T13:21:38;15.67;;;10.33;;
14681;SDS011;7429;52.498;13.480;2024-02-26T13:24:43;11.73;;;10.53;;
14681;SDS011;7429;52.498;13.480;2024-02-26T13:27:46;11.80;;;9.63;;
14681;SDS011;7429;52.498;13.480;2024-02-26T13:30:50;11.60;;;8.93;;
14681;SDS011;7429;52.498;13.480;2024-02-26T13:33:54;11.90;;;8.23;;
14681;SDS011;7429;52.498;13.480;2024-02-26T13:36:57;12.10;;;9.13;;
14681;SDS011;7429;52.498;13.480;2024-02-26T13:40:05;12.93;;;9.20;;
14681;SDS011;7429;52.498;13.480;2024-02-26T13:43:10;15.27;;;9.43;;
14681;SDS011;7429;52.498;13.480;2024-02-26T13:46:13;11.10;;;8.57;;
14681;SDS011;7429;52.498;13.480;2024-02-26T13:49:17;10.90;;;8.63;;
14681;SDS011;7429;52.498;13.480;2024-02-26T13:52:20;10.53;;;8.37;;
14681;SDS011;7429;52.498;13.480;2024-02-26T13:55:26;13.23;;;9.40;;
14681;SDS011;7429;52.498;13.480;2024-02-26T13:58:31;11.67;;;7.67;;
14681;SDS011;7429;52.498;13.480;2024-02-26T14:01:34;12.80;;;8.07;;
14681;SDS011;7429;52.498;13.480;2024-02-26T14:04:38;11.30;;;9.03;;
14681;SDS011;7429;52.498;13.480;2024-02-26T14:07:41;11.97;;;7.80;;
14681;SDS011;7429;52.498;13.480;2024-02-26T14:10:46;11.03;;;8.47;;
14681;SDS011;7429;52.498;13.480;2024-02-26T14:13:49;10.77;;;8.03;;
14681;SDS011;7429;52.498;13.480;2024-02-26T14:16:53;15.00;;;8.20;;
14681;SDS011;7429;52.498;13.480;2024-02-26T14:19:56;10.83;;;7.87;;
14681;SDS011;7429;52.498;13.480;2024-02-26T14:23:00;9.07;;;8.17;;
14681;SDS011;7429;52.498;13.480;2024-02-26T14:26:05;9.53;;;8.03;;
14681;SDS011;7429;52.498;13.480;2024-02-26T14:29:09;9.90;;;7.90;;
14681;SDS011;7429;52.498;13.480;2024-02-26T14:32:12;11.27;;;8.70;;
14681;SDS011;7429;52.498;13.480;2024-02-26T14:35:15;11.17;;;8.93;;
14681;SDS011;7429;52.498;13.480;2024-02-26T14:38:19;11.73;;;8.67;;
14681;SDS011;7429;52.498;13.480;2024-02-26T14:41:26;12.30;;;8.60;;
14681;SDS011;7429;52.498;13.480;2024-02-26T14:44:30;12.80;;;9.37;;
14681;SDS011;7429;52.498;13.480;2024-02-26T14:47:33;11.47;;;8.93;;
14681;SDS011;7429;52.498;13.480;2024-02-26T14:50:37;12.27;;;9.70;;
14681;SDS011;7429;52.498;13.480;2024-02-26T14:53:40;11.90;;;9.47;;
14681;SDS011;7429;52.498;13.480;2024-02-26T14:56:44;13.80;;;10.20;;
14681;SDS011;7429;52.498;13.480;2024-02-26T14:59:49;13.57;;;9.03;;
14681;SDS011;7429;52.498;13.480;2024-02-26T15:02:52;10.50;;;8.37;;
14681;SDS011;7429;52.498;13.480;2024-02-26T15:05:56;11.50;;;8.93;;
14681;SDS011;7429;52.498;13.480;2024-02-26T15:08:59;13.03;;;9.07;;
14681;SDS011;7429;52.498;13.480;2024-02-26T15:12:06;11.07;;;8.77;;
14681;SDS011;7429;52.498;13.480;2024-02-26T15:15:11;15.27;;;9.33;;
14681;SDS011;7429;52.498;13.480;2024-02-26T15:18:18;11.87;;;9.50;;
14681;SDS011;7429;52.498;13.480;2024-02-26T15:21:22;11.57;;;9.17;;
14681;SDS011;7429;52.498;13.480;2024-02-26T15:24:25;17.37;;;9.77;;
14681;SDS011;7429;52.498;13.480;2024-02-26T15:27:30;13.40;;;9.03;;
14681;SDS011;7429;52.498;13.480;2024-02-26T15:30:33;13.77;;;9.73;;
14681;SDS011;7429;52.498;13.480;2024-02-26T15:33:37;12.10;;;9.27;;
14681;SDS011;7429;52.498;13.480;2024-02-26T15:36:40;11.50;;;9.90;;
14681;SDS011;7429;52.498;13.480;2024-02-26T15:39:44;14.07;;;9.67;;
14681;SDS011;7429;52.498;13.480;2024-02-26T15:42:48;11.23;;;8.87;;
14681;SDS011;7429;52.498;13.480;2024-02-26T15:45:51;19.37;;;10.53;;
14681;SDS011;7429;52.498;13.480;2024-02-26T15:48:55;15.20;;;11.63;;
14681;SDS011;7429;52.498;13.480;2024-02-26T15:51:58;15.57;;;11.17;;
14681;SDS011;7429;52.498;13.480;2024-02-26T15:55:01;21.63;;;12.60;;
14681;SDS011;7429;52.498;13.480;2024-02-26T15:58:09;17.10;;;12.37;;
14681;SDS011;7429;52.498;13.480;2024-02-26T16:01:12;18.17;;;13.43;;
14681;SDS011;7429;52.498;13.480;2024-02-26T16:04:25;16.43;;;12.67;;
14681;SDS011;7429;52.498;13.480;2024-02-26T16:07:30;16.57;;;11.90;;
14681;SDS011;7429;52.498;13.480;2024-02-26T16:10:40;16.03;;;11.70;;
14681;SDS011;7429;52.498;13.480;2024-02-26T16:13:44;17.13;;;12.30;;
14681;SDS011;7429;52.498;13.480;2024-02-26T16:16:50;15.87;;;11.37;;
14681;SDS011;7429;52.498;13.480;2024-02-26T16:19:57;20.80;;;13.00;;
14681;SDS011;7429;52.498;13.480;2024-02-26T16:23:02;17.27;;;13.60;;
14681;SDS011;7429;52.498;13.480;2024-02-26T16:26:08;17.50;;;13.20;;
14681;SDS011;7429;52.498;13.480;2024-02-26T16:29:15;17.77;;;13.30;;
14681;SDS011;7429;52.498;13.480;2024-02-26T16:32:18;21.27;;;13.63;;
14681;SDS011;7429;52.498;13.480;2024-02-26T16:35:22;20.10;;;13.83;;
14681;SDS011;7429;52.498;13.480;2024-02-26T16:38:26;17.30;;;13.60;;
14681;SDS011;7429;52.498;13.480;2024-02-26T16:41:29;21.63;;;14.60;;
14681;SDS011;7429;52.498;13.480;2024-02-26T16:44:34;19.43;;;14.07;;
14681;SDS011;7429;52.498;13.480;2024-02-26T16:47:38;20.60;;;13.97;;
14681;SDS011;7429;52.498;13.480;2024-02-26T16:50:43;20.67;;;15.57;;
14681;SDS011;7429;52.498;13.480;2024-02-26T16:53:47;20.77;;;14.63;;
14681;SDS011;7429;52.498;13.480;2024-02-26T16:56:50;20.80;;;15.07;;
14681;SDS011;7429;52.498;13.480;2024-02-26T16:59:55;22.60;;;14.80;;
14681;SDS011;7429;52.498;13.480;2024-02-26T17:02:58;17.93;;;13.57;;
14681;SDS011;7429;52.498;13.480;2024-02-26T17:06:02;18.40;;;14.17;;
14681;SDS011;7429;52.498;13.480;2024-02-26T17:09:06;19.50;;;13.67;;
14681;SDS011;7429;52.498;13.480;2024-02-26T17:12:11;18.23;;;13.60;;
14681;SDS011;7429;52.498;13.480;2024-02-26T17:15:36;17.73;;;13.73;;
14681;SDS011;7429;52.498;13.480;2024-02-26T17:18:40;22.07;;;14.07;;
14681;SDS011;7429;52.498;13.480;2024-02-26T17:21:48;18.07;;;12.90;;
14681;SDS011;7429;52.498;13.480;2024-02-26T17:25:02;21.00;;;13.13;;
14681;SDS011;7429;52.498;13.480;2024-02-26T17:28:07;20.13;;;13.50;;
14681;SDS011;7429;52.498;13.480;2024-02-26T17:31:14;21.90;;;13.20;;
14681;SDS011;7429;52.498;13.480;2024-02-26T17:34:19;21.67;;;13.53;;
14681;SDS011;7429;52.498;13.480;2024-02-26T17:37:23;28.33;;;16.70;;
14681;SDS011;7429;52.498;13.480;2024-02-26T17:40:26;23.97;;;15.57;;
14681;SDS011;7429;52.498;13.480;2024-02-26T17:43:30;29.60;;;17.80;;
14681;SDS011;7429;52.498;13.480;2024-02-26T17:46:34;30.10;;;17.50;;
14681;SDS011;7429;52.498;13.480;2024-02-26T17:49:38;28.43;;;17.77;;
14681;SDS011;7429;52.498;13.480;2024-02-26T17:52:42;32.20;;;18.43;;
14681;SDS011;7429;52.498;13.480;2024-02-26T17:55:45;28.70;;;18.07;;
14681;SDS011;7429;52.498;13.480;2024-02-26T17:58:48;31.77;;;18.37;;
14681;SDS011;7429;52.498;13.480;2024-02-26T18:01:53;30.27;;;17.73;;
14681;SDS011;7429;52.498;13.480;2024-02-26T18:04:56;28.37;;;17.70;;
14681;SDS011;7429;52.498;13.480;2024-02-26T18:08:00;31.53;;;18.43;;
14681;SDS011;7429;52.498;13.480;2024-02-26T18:11:03;41.70;;;19.83;;
14681;SDS011;7429;52.498;13.480;2024-02-26T18:14:06;27.47;;;18.20;;